sensor_id;sensor_type;location;lat;lon;timestamp;P1;durP1;ratioP1;P2;durP2;ratioP2
22191;SDS011;11261;52.456;10.850;2024-03-17T00:01:44;6.47;;;1.48;;
22191;SDS011;11261;52.456;10.850;2024-03-17T00:04:10;6.05;;;1.42;;
22191;SDS011;11261;52.456;10.850;2024-03-17T00:06:38;12.15;;;1.70;;
22191;SDS011;11261;52.456;10.850;2024-03-17T00:09:06;6.60;;;1.50;;
22191;SDS011;11261;52.456;10.850;2024-03-17T00:11:34;10.30;;;2.30;;
22191;SDS011;11261;52.456;10.850;2024-03-17T00:14:01;9.82;;;2.30;;
22191;SDS011;11261;52.456;10.850;2024-03-17T00:16:29;5.38;;;1.58;;
22191;SDS011;11261;52.456;10.850;2024-03-17T00:18:55;13.95;;;1.80;;
22191;SDS011;11261;52.456;10.850;2024-03-17T00:21:23;5.85;;;1.65;;
22191;SDS011;11261;52.456;10.850;2024-03-17T00:23:52;12.40;;;2.28;;
22191;SDS011;11261;52.456;10.850;2024-03-17T00:26:20;12.77;;;2.78;;
22191;SDS011;11261;52.456;10.850;2024-03-17T00:28:48;9.57;;;1.90;;
22191;SDS011;11261;52.456;10.850;2024-03-17T00:31:16;8.73;;;1.95;;
22191;SDS011;11261;52.456;10.850;2024-03-17T00:33:44;7.97;;;2.00;;
22191;SDS011;11261;52.456;10.850;2024-03-17T00:36:11;10.35;;;2.20;;
22191;SDS011;11261;52.456;10.850;2024-03-17T00:38:38;8.02;;;2.28;;
22191;SDS011;11261;52.456;10.850;2024-03-17T00:41:05;8.10;;;1.60;;
22191;SDS011;11261;52.456;10.850;2024-03-17T00:43:33;5.15;;;1.48;;
22191;SDS011;11261;52.456;10.850;2024-03-17T00:46:02;10.23;;;2.30;;
22191;SDS011;11261;52.456;10.850;2024-03-17T00:48:29;6.15;;;1.30;;
22191;SDS011;11261;52.456;10.850;2024-03-17T00:50:57;9.05;;;2.05;;
22191;SDS011;11261;52.456;10.850;2024-03-17T00:53:24;7.18;;;2.20;;
22191;SDS011;11261;52.456;10.850;2024-03-17T00:55:51;6.45;;;1.45;;
22191;SDS011;11261;52.456;10.850;2024-03-17T00:58:18;14.90;;;2.17;;
22191;SDS011;11261;52.456;10.850;2024-03-17T01:00:47;8.02;;;1.95;;
22191;SDS011;11261;52.456;10.850;2024-03-17T01:03:14;8.77;;;2.50;;
22191;SDS011;11261;52.456;10.850;2024-03-17T01:05:42;9.27;;;1.48;;
22191;SDS011;11261;52.456;10.850;2024-03-17T01:08:10;9.05;;;1.88;;
22191;SDS011;11261;52.456;10.850;2024-03-17T01:10:38;9.20;;;2.20;;
22191;SDS011;11261;52.456;10.850;2024-03-17T01:13:05;13.02;;;2.50;;
22191;SDS011;11261;52.456;10.850;2024-03-17T01:15:33;9.00;;;2.20;;
22191;SDS011;11261;52.456;10.850;2024-03-17T01:18:01;10.80;;;1.92;;
22191;SDS011;11261;52.456;10.850;2024-03-17T01:20:29;6.22;;;2.20;;
22191;SDS011;11261;52.456;10.850;2024-03-17T01:22:56;8.10;;;2.08;;
22191;SDS011;11261;52.456;10.850;2024-03-17T01:25:24;8.68;;;2.63;;
22191;SDS011;11261;52.456;10.850;2024-03-17T01:27:51;7.82;;;1.80;;
22191;SDS011;11261;52.456;10.850;2024-03-17T01:30:18;7.88;;;2.00;;
22191;SDS011;11261;52.456;10.850;2024-03-17T01:32:45;12.27;;;2.25;;
22191;SDS011;11261;52.456;10.850;2024-03-17T01:35:14;10.77;;;2.40;;
22191;SDS011;11261;52.456;10.850;2024-03-17T01:37:41;11.95;;;2.67;;
22191;SDS011;11261;52.456;10.850;2024-03-17T01:40:09;11.38;;;2.00;;
22191;SDS011;11261;52.456;10.850;2024-03-17T01:42:36;5.90;;;1.75;;
22191;SDS011;11261;52.456;10.850;2024-03-17T01:45:10;7.30;;;1.98;;
22191;SDS011;11261;52.456;10.850;2024-03-17T01:47:44;10.18;;;2.15;;
22191;SDS011;11261;52.456;10.850;2024-03-17T01:50:13;11.48;;;2.08;;
22191;SDS011;11261;52.456;10.850;2024-03-17T01:52:44;6.88;;;2.15;;
22191;SDS011;11261;52.456;10.850;2024-03-17T01:55:12;9.55;;;1.90;;
22191;SDS011;11261;52.456;10.850;2024-03-17T01:57:39;7.75;;;1.98;;
22191;SDS011;11261;52.456;10.850;2024-03-17T02:00:07;8.75;;;1.80;;
22191;SDS011;11261;52.456;10.850;2024-03-17T02:02:34;7.20;;;1.98;;
22191;SDS011;11261;52.456;10.850;2024-03-17T02:05:02;4.55;;;1.60;;
22191;SDS011;11261;52.456;10.850;2024-03-17T02:07:30;6.30;;;2.30;;
22191;SDS011;11261;52.456;10.850;2024-03-17T02:09:58;6.47;;;1.52;;
22191;SDS011;11261;52.456;10.850;2024-03-17T02:12:24;8.70;;;1.85;;
22191;SDS011;11261;52.456;10.850;2024-03-17T02:14:52;11.23;;;2.42;;
22191;SDS011;11261;52.456;10.850;2024-03-17T02:17:19;7.57;;;2.17;;
22191;SDS011;11261;52.456;10.850;2024-03-17T02:19:46;5.60;;;1.83;;
22191;SDS011;11261;52.456;10.850;2024-03-17T02:22:14;5.25;;;1.65;;
22191;SDS011;11261;52.456;10.850;2024-03-17T02:24:42;6.03;;;1.77;;
22191;SDS011;11261;52.456;10.850;2024-03-17T02:27:09;6.55;;;1.95;;
22191;SDS011;11261;52.456;10.850;2024-03-17T02:29:36;5.85;;;2.05;;
22191;SDS011;11261;52.456;10.850;2024-03-17T02:32:03;10.50;;;2.08;;
22191;SDS011;11261;52.456;10.850;2024-03-17T02:34:33;9.80;;;1.67;;
22191;SDS011;11261;52.456;10.850;2024-03-17T02:37:00;6.25;;;2.00;;
22191;SDS011;11261;52.456;10.850;2024-03-17T02:39:29;6.68;;;1.45;;
22191;SDS011;11261;52.456;10.850;2024-03-17T02:41:59;5.93;;;1.98;;
22191;SDS011;11261;52.456;10.850;2024-03-17T02:44:27;8.48;;;2.10;;
22191;SDS011;11261;52.456;10.850;2024-03-17T02:46:55;8.57;;;2.08;;
22191;SDS011;11261;52.456;10.850;2024-03-17T02:49:24;11.02;;;1.60;;
22191;SDS011;11261;52.456;10.850;2024-03-17T02:51:52;6.93;;;1.80;;
22191;SDS011;11261;52.456;10.850;2024-03-17T02:54:20;10.00;;;1.90;;
22191;SDS011;11261;52.456;10.850;2024-03-17T02:56:49;9.80;;;2.00;;
22191;SDS011;11261;52.456;10.850;2024-03-17T02:59:17;6.30;;;1.83;;
22191;SDS011;11261;52.456;10.850;2024-03-17T03:01:44;11.30;;;3.17;;
22191;SDS011;11261;52.456;10.850;2024-03-17T03:04:12;6.03;;;2.03;;
22191;SDS011;11261;52.456;10.850;2024-03-17T03:06:41;5.00;;;1.90;;
22191;SDS011;11261;52.456;10.850;2024-03-17T03:09:08;5.85;;;2.00;;
22191;SDS011;11261;52.456;10.850;2024-03-17T03:11:39;9.20;;;2.03;;
22191;SDS011;11261;52.456;10.850;2024-03-17T03:14:08;6.78;;;2.10;;
22191;SDS011;11261;52.456;10.850;2024-03-17T03:16:35;3.72;;;1.45;;
22191;SDS011;11261;52.456;10.850;2024-03-17T03:19:02;7.88;;;2.05;;
22191;SDS011;11261;52.456;10.850;2024-03-17T03:21:30;7.15;;;1.50;;
22191;SDS011;11261;52.456;10.850;2024-03-17T03:23:57;7.32;;;2.25;;
22191;SDS011;11261;52.456;10.850;2024-03-17T03:26:25;10.98;;;1.77;;
22191;SDS011;11261;52.456;10.850;2024-03-17T03:28:54;5.68;;;2.22;;
22191;SDS011;11261;52.456;10.850;2024-03-17T03:31:23;8.82;;;2.42;;
22191;SDS011;11261;52.456;10.850;2024-03-17T03:33:51;8.57;;;1.90;;
22191;SDS011;11261;52.456;10.850;2024-03-17T03:36:18;9.38;;;1.60;;
22191;SDS011;11261;52.456;10.850;2024-03-17T03:38:46;5.93;;;1.88;;
22191;SDS011;11261;52.456;10.850;2024-03-17T03:41:15;9.45;;;2.30;;
22191;SDS011;11261;52.456;10.850;2024-03-17T03:43:43;10.70;;;2.35;;
22191;SDS011;11261;52.456;10.850;2024-03-17T03:46:12;7.28;;;1.73;;
22191;SDS011;11261;52.456;10.850;2024-03-17T03:48:41;4.93;;;1.80;;
22191;SDS011;11261;52.456;10.850;2024-03-17T03:51:09;5.43;;;1.80;;
22191;SDS011;11261;52.456;10.850;2024-03-17T03:53:37;10.25;;;1.83;;
22191;SDS011;11261;52.456;10.850;2024-03-17T03:56:05;6.95;;;1.60;;
22191;SDS011;11261;52.456;10.850;2024-03-17T03:58:33;7.60;;;1.90;;
22191;SDS011;11261;52.456;10.850;2024-03-17T04:01:03;10.05;;;2.08;;
22191;SDS011;11261;52.456;10.850;2024-03-17T04:03:30;8.98;;;2.30;;
22191;SDS011;11261;52.456;10.850;2024-03-17T04:06:04;9.95;;;2.25;;
22191;SDS011;11261;52.456;10.850;2024-03-17T04:08:32;8.93;;;3.00;;
22191;SDS011;11261;52.456;10.850;2024-03-17T04:11:00;9.40;;;2.03;;
22191;SDS011;11261;52.456;10.850;2024-03-17T04:13:27;7.75;;;2.28;;
22191;SDS011;11261;52.456;10.850;2024-03-17T04:15:56;9.10;;;1.88;;
22191;SDS011;11261;52.456;10.850;2024-03-17T04:18:24;9.57;;;2.13;;
22191;SDS011;11261;52.456;10.850;2024-03-17T04:20:52;4.82;;;2.00;;
22191;SDS011;11261;52.456;10.850;2024-03-17T04:23:21;10.18;;;2.17;;
22191;SDS011;11261;52.456;10.850;2024-03-17T04:25:50;8.68;;;2.38;;
22191;SDS011;11261;52.456;10.850;2024-03-17T04:28:18;10.50;;;2.10;;
22191;SDS011;11261;52.456;10.850;2024-03-17T04:30:44;6.65;;;2.00;;
22191;SDS011;11261;52.456;10.850;2024-03-17T04:33:13;9.70;;;2.00;;
22191;SDS011;11261;52.456;10.850;2024-03-17T04:35:42;4.22;;;1.65;;
22191;SDS011;11261;52.456;10.850;2024-03-17T04:38:10;8.32;;;2.13;;
22191;SDS011;11261;52.456;10.850;2024-03-17T04:40:41;10.02;;;1.90;;
22191;SDS011;11261;52.456;10.850;2024-03-17T04:43:09;6.05;;;2.00;;
22191;SDS011;11261;52.456;10.850;2024-03-17T04:45:36;7.25;;;1.85;;
22191;SDS011;11261;52.456;10.850;2024-03-17T04:48:04;8.00;;;1.85;;
22191;SDS011;11261;52.456;10.850;2024-03-17T04:50:32;4.03;;;1.83;;
22191;SDS011;11261;52.456;10.850;2024-03-17T04:53:00;8.52;;;1.88;;
22191;SDS011;11261;52.456;10.850;2024-03-17T04:55:27;12.27;;;1.90;;
22191;SDS011;11261;52.456;10.850;2024-03-17T04:57:56;6.20;;;1.77;;
22191;SDS011;11261;52.456;10.850;2024-03-17T05:00:24;3.78;;;1.67;;
22191;SDS011;11261;52.456;10.850;2024-03-17T05:02:52;7.03;;;1.30;;
22191;SDS011;11261;52.456;10.850;2024-03-17T05:05:19;6.70;;;1.60;;
22191;SDS011;11261;52.456;10.850;2024-03-17T05:07:49;4.85;;;1.73;;
22191;SDS011;11261;52.456;10.850;2024-03-17T05:10:16;7.75;;;1.83;;
22191;SDS011;11261;52.456;10.850;2024-03-17T05:12:44;10.70;;;2.55;;
22191;SDS011;11261;52.456;10.850;2024-03-17T05:15:14;8.35;;;1.98;;
22191;SDS011;11261;52.456;10.850;2024-03-17T05:17:42;7.45;;;2.05;;
22191;SDS011;11261;52.456;10.850;2024-03-17T05:20:11;5.32;;;1.52;;
22191;SDS011;11261;52.456;10.850;2024-03-17T05:22:38;6.25;;;1.73;;
22191;SDS011;11261;52.456;10.850;2024-03-17T05:25:06;5.90;;;2.03;;
22191;SDS011;11261;52.456;10.850;2024-03-17T05:27:34;5.57;;;1.58;;
22191;SDS011;11261;52.456;10.850;2024-03-17T05:30:02;7.25;;;2.20;;
22191;SDS011;11261;52.456;10.850;2024-03-17T05:32:31;10.10;;;1.83;;
22191;SDS011;11261;52.456;10.850;2024-03-17T05:34:58;4.68;;;2.28;;
22191;SDS011;11261;52.456;10.850;2024-03-17T05:37:26;7.18;;;1.85;;
22191;SDS011;11261;52.456;10.850;2024-03-17T05:39:54;9.82;;;1.88;;
22191;SDS011;11261;52.456;10.850;2024-03-17T05:42:22;10.80;;;2.65;;
22191;SDS011;11261;52.456;10.850;2024-03-17T05:44:49;10.38;;;2.30;;
22191;SDS011;11261;52.456;10.850;2024-03-17T05:47:16;10.27;;;2.13;;
22191;SDS011;11261;52.456;10.850;2024-03-17T05:49:46;7.57;;;2.10;;
22191;SDS011;11261;52.456;10.850;2024-03-17T05:52:13;12.35;;;2.47;;
22191;SDS011;11261;52.456;10.850;2024-03-17T05:54:40;9.48;;;2.58;;
22191;SDS011;11261;52.456;10.850;2024-03-17T05:57:08;6.88;;;2.25;;
22191;SDS011;11261;52.456;10.850;2024-03-17T05:59:37;4.43;;;1.63;;
22191;SDS011;11261;52.456;10.850;2024-03-17T06:02:05;6.30;;;1.85;;
22191;SDS011;11261;52.456;10.850;2024-03-17T06:04:35;8.63;;;2.13;;
22191;SDS011;11261;52.456;10.850;2024-03-17T06:07:05;10.60;;;2.42;;
22191;SDS011;11261;52.456;10.850;2024-03-17T06:09:33;8.57;;;1.90;;
22191;SDS011;11261;52.456;10.850;2024-03-17T06:12:01;11.55;;;2.42;;
22191;SDS011;11261;52.456;10.850;2024-03-17T06:14:29;9.95;;;2.58;;
22191;SDS011;11261;52.456;10.850;2024-03-17T06:16:56;7.80;;;1.65;;
22191;SDS011;11261;52.456;10.850;2024-03-17T06:19:24;11.27;;;2.58;;
22191;SDS011;11261;52.456;10.850;2024-03-17T06:21:52;8.98;;;2.20;;
22191;SDS011;11261;52.456;10.850;2024-03-17T06:24:21;13.63;;;1.98;;
22191;SDS011;11261;52.456;10.850;2024-03-17T06:26:50;9.52;;;2.20;;
22191;SDS011;11261;52.456;10.850;2024-03-17T06:29:18;11.25;;;2.80;;
22191;SDS011;11261;52.456;10.850;2024-03-17T06:31:45;14.35;;;4.15;;
22191;SDS011;11261;52.456;10.850;2024-03-17T06:34:14;27.27;;;8.00;;
22191;SDS011;11261;52.456;10.850;2024-03-17T06:36:43;37.22;;;14.52;;
22191;SDS011;11261;52.456;10.850;2024-03-17T06:39:12;37.00;;;14.00;;
22191;SDS011;11261;52.456;10.850;2024-03-17T06:41:43;31.27;;;11.52;;
22191;SDS011;11261;52.456;10.850;2024-03-17T06:44:10;17.58;;;7.80;;
22191;SDS011;11261;52.456;10.850;2024-03-17T06:46:38;14.93;;;5.00;;
22191;SDS011;11261;52.456;10.850;2024-03-17T06:49:06;13.73;;;4.28;;
22191;SDS011;11261;52.456;10.850;2024-03-17T06:51:33;13.95;;;4.15;;
22191;SDS011;11261;52.456;10.850;2024-03-17T06:54:01;22.75;;;5.53;;
22191;SDS011;11261;52.456;10.850;2024-03-17T06:56:29;10.27;;;4.03;;
22191;SDS011;11261;52.456;10.850;2024-03-17T06:58:59;13.70;;;3.75;;
22191;SDS011;11261;52.456;10.850;2024-03-17T07:01:27;9.55;;;3.47;;
22191;SDS011;11261;52.456;10.850;2024-03-17T07:03:54;8.90;;;2.60;;
22191;SDS011;11261;52.456;10.850;2024-03-17T07:06:22;15.60;;;3.85;;
22191;SDS011;11261;52.456;10.850;2024-03-17T07:08:49;16.80;;;4.45;;
22191;SDS011;11261;52.456;10.850;2024-03-17T07:11:17;10.50;;;3.50;;
22191;SDS011;11261;52.456;10.850;2024-03-17T07:13:49;13.20;;;3.22;;
22191;SDS011;11261;52.456;10.850;2024-03-17T07:16:19;12.63;;;2.78;;
22191;SDS011;11261;52.456;10.850;2024-03-17T07:18:50;9.93;;;2.40;;
22191;SDS011;11261;52.456;10.850;2024-03-17T07:21:18;16.20;;;2.72;;
22191;SDS011;11261;52.456;10.850;2024-03-17T07:23:45;17.15;;;3.05;;
22191;SDS011;11261;52.456;10.850;2024-03-17T07:26:13;12.93;;;2.85;;
22191;SDS011;11261;52.456;10.850;2024-03-17T07:28:41;14.82;;;2.80;;
22191;SDS011;11261;52.456;10.850;2024-03-17T07:31:10;9.05;;;2.78;;
22191;SDS011;11261;52.456;10.850;2024-03-17T07:33:39;17.88;;;2.95;;
22191;SDS011;11261;52.456;10.850;2024-03-17T07:36:07;11.88;;;2.60;;
22191;SDS011;11261;52.456;10.850;2024-03-17T07:38:36;12.48;;;2.72;;
22191;SDS011;11261;52.456;10.850;2024-03-17T07:41:04;12.38;;;3.00;;
22191;SDS011;11261;52.456;10.850;2024-03-17T07:43:33;10.55;;;2.60;;
22191;SDS011;11261;52.456;10.850;2024-03-17T07:46:01;15.68;;;3.33;;
22191;SDS011;11261;52.456;10.850;2024-03-17T07:48:30;13.68;;;2.42;;
22191;SDS011;11261;52.456;10.850;2024-03-17T07:50:59;12.38;;;2.85;;
22191;SDS011;11261;52.456;10.850;2024-03-17T07:53:29;7.43;;;2.40;;
22191;SDS011;11261;52.456;10.850;2024-03-17T07:55:57;10.65;;;3.53;;
22191;SDS011;11261;52.456;10.850;2024-03-17T07:58:25;16.27;;;2.83;;
22191;SDS011;11261;52.456;10.850;2024-03-17T08:00:53;11.73;;;2.65;;
22191;SDS011;11261;52.456;10.850;2024-03-17T08:03:24;12.85;;;3.67;;
22191;SDS011;11261;52.456;10.850;2024-03-17T08:05:52;11.27;;;2.65;;
22191;SDS011;11261;52.456;10.850;2024-03-17T08:08:21;13.52;;;2.50;;
22191;SDS011;11261;52.456;10.850;2024-03-17T08:10:49;10.57;;;2.78;;
22191;SDS011;11261;52.456;10.850;2024-03-17T08:13:17;13.45;;;2.70;;
22191;SDS011;11261;52.456;10.850;2024-03-17T08:15:45;13.57;;;3.42;;
22191;SDS011;11261;52.456;10.850;2024-03-17T08:18:13;8.65;;;2.10;;
22191;SDS011;11261;52.456;10.850;2024-03-17T08:20:41;15.60;;;2.60;;
22191;SDS011;11261;52.456;10.850;2024-03-17T08:23:10;12.65;;;2.83;;
22191;SDS011;11261;52.456;10.850;2024-03-17T08:25:39;15.40;;;2.20;;
22191;SDS011;11261;52.456;10.850;2024-03-17T08:28:07;12.23;;;2.38;;
22191;SDS011;11261;52.456;10.850;2024-03-17T08:30:35;7.30;;;2.30;;
22191;SDS011;11261;52.456;10.850;2024-03-17T08:33:02;13.65;;;2.90;;
22191;SDS011;11261;52.456;10.850;2024-03-17T08:35:30;13.70;;;2.05;;
22191;SDS011;11261;52.456;10.850;2024-03-17T08:37:57;19.30;;;2.65;;
22191;SDS011;11261;52.456;10.850;2024-03-17T08:40:26;12.77;;;2.28;;
22191;SDS011;11261;52.456;10.850;2024-03-17T08:42:54;7.65;;;1.85;;
22191;SDS011;11261;52.456;10.850;2024-03-17T08:45:22;13.77;;;2.58;;
22191;SDS011;11261;52.456;10.850;2024-03-17T08:47:50;11.32;;;1.88;;
22191;SDS011;11261;52.456;10.850;2024-03-17T08:50:19;9.68;;;1.70;;
22191;SDS011;11261;52.456;10.850;2024-03-17T08:52:46;10.30;;;1.80;;
22191;SDS011;11261;52.456;10.850;2024-03-17T08:55:16;12.18;;;2.85;;
22191;SDS011;11261;52.456;10.850;2024-03-17T08:57:44;11.05;;;2.20;;
22191;SDS011;11261;52.456;10.850;2024-03-17T09:00:13;9.70;;;1.70;;
22191;SDS011;11261;52.456;10.850;2024-03-17T09:02:41;12.00;;;2.20;;
22191;SDS011;11261;52.456;10.850;2024-03-17T09:05:08;11.88;;;1.88;;
22191;SDS011;11261;52.456;10.850;2024-03-17T09:07:37;6.45;;;1.67;;
22191;SDS011;11261;52.456;10.850;2024-03-17T09:10:05;7.32;;;1.88;;
22191;SDS011;11261;52.456;10.850;2024-03-17T09:12:34;8.68;;;2.00;;
22191;SDS011;11261;52.456;10.850;2024-03-17T09:15:02;5.10;;;1.63;;
22191;SDS011;11261;52.456;10.850;2024-03-17T09:17:31;10.32;;;2.13;;
22191;SDS011;11261;52.456;10.850;2024-03-17T09:19:59;5.88;;;1.48;;
22191;SDS011;11261;52.456;10.850;2024-03-17T09:22:26;7.10;;;1.35;;
22191;SDS011;11261;52.456;10.850;2024-03-17T09:24:55;6.35;;;1.88;;
22191;SDS011;11261;52.456;10.850;2024-03-17T09:27:22;9.48;;;2.35;;
22191;SDS011;11261;52.456;10.850;2024-03-17T09:29:51;9.07;;;2.00;;
22191;SDS011;11261;52.456;10.850;2024-03-17T09:32:18;8.88;;;2.33;;
22191;SDS011;11261;52.456;10.850;2024-03-17T09:34:47;8.18;;;1.83;;
22191;SDS011;11261;52.456;10.850;2024-03-17T09:37:15;7.95;;;1.75;;
22191;SDS011;11261;52.456;10.850;2024-03-17T09:39:42;5.60;;;1.20;;
22191;SDS011;11261;52.456;10.850;2024-03-17T09:42:14;4.47;;;1.35;;
22191;SDS011;11261;52.456;10.850;2024-03-17T09:44:42;6.85;;;1.42;;
22191;SDS011;11261;52.456;10.850;2024-03-17T09:47:10;12.05;;;1.70;;
22191;SDS011;11261;52.456;10.850;2024-03-17T09:49:43;6.50;;;1.35;;
22191;SDS011;11261;52.456;10.850;2024-03-17T09:52:14;4.97;;;1.13;;
22191;SDS011;11261;52.456;10.850;2024-03-17T09:54:45;5.40;;;1.50;;
22191;SDS011;11261;52.456;10.850;2024-03-17T09:57:14;5.03;;;1.50;;
22191;SDS011;11261;52.456;10.850;2024-03-17T09:59:47;6.60;;;1.10;;
22191;SDS011;11261;52.456;10.850;2024-03-17T10:02:17;5.63;;;1.27;;
22191;SDS011;11261;52.456;10.850;2024-03-17T10:04:45;9.43;;;1.60;;
22191;SDS011;11261;52.456;10.850;2024-03-17T10:07:14;5.55;;;1.48;;
22191;SDS011;11261;52.456;10.850;2024-03-17T10:09:42;5.22;;;1.17;;
22191;SDS011;11261;52.456;10.850;2024-03-17T10:12:26;5.45;;;1.10;;
22191;SDS011;11261;52.456;10.850;2024-03-17T10:14:58;6.53;;;1.85;;
22191;SDS011;11261;52.456;10.850;2024-03-17T10:17:29;7.95;;;1.40;;
22191;SDS011;11261;52.456;10.850;2024-03-17T10:20:10;5.72;;;1.25;;
22191;SDS011;11261;52.456;10.850;2024-03-17T10:22:49;6.07;;;1.10;;
22191;SDS011;11261;52.456;10.850;2024-03-17T10:25:25;3.55;;;1.00;;
22191;SDS011;11261;52.456;10.850;2024-03-17T10:27:53;6.22;;;1.55;;
22191;SDS011;11261;52.456;10.850;2024-03-17T10:30:20;4.63;;;1.33;;
22191;SDS011;11261;52.456;10.850;2024-03-17T10:32:53;5.07;;;1.30;;
22191;SDS011;11261;52.456;10.850;2024-03-17T10:35:28;8.75;;;1.80;;
22191;SDS011;11261;52.456;10.850;2024-03-17T10:37:58;5.10;;;1.10;;
22191;SDS011;11261;52.456;10.850;2024-03-17T10:40:26;4.50;;;1.00;;
22191;SDS011;11261;52.456;10.850;2024-03-17T10:42:55;6.95;;;1.88;;
22191;SDS011;11261;52.456;10.850;2024-03-17T10:45:23;4.90;;;1.30;;
22191;SDS011;11261;52.456;10.850;2024-03-17T10:47:51;4.00;;;0.98;;
22191;SDS011;11261;52.456;10.850;2024-03-17T10:50:19;4.63;;;1.30;;
22191;SDS011;11261;52.456;10.850;2024-03-17T10:52:48;1.60;;;0.73;;
22191;SDS011;11261;52.456;10.850;2024-03-17T10:55:21;5.00;;;1.17;;
22191;SDS011;11261;52.456;10.850;2024-03-17T10:57:50;4.20;;;1.20;;
22191;SDS011;11261;52.456;10.850;2024-03-17T11:00:18;5.30;;;1.10;;
22191;SDS011;11261;52.456;10.850;2024-03-17T11:02:47;7.57;;;1.35;;
22191;SDS011;11261;52.456;10.850;2024-03-17T11:05:20;2.83;;;1.00;;
22191;SDS011;11261;52.456;10.850;2024-03-17T11:07:48;4.63;;;1.23;;
22191;SDS011;11261;52.456;10.850;2024-03-17T11:10:16;5.80;;;1.50;;
22191;SDS011;11261;52.456;10.850;2024-03-17T11:12:47;5.45;;;1.45;;
22191;SDS011;11261;52.456;10.850;2024-03-17T11:15:38;2.92;;;0.82;;
22191;SDS011;11261;52.456;10.850;2024-03-17T11:20:58;8.00;;;1.48;;
22191;SDS011;11261;52.456;10.850;2024-03-17T11:23:27;7.30;;;1.30;;
22191;SDS011;11261;52.456;10.850;2024-03-17T11:25:55;4.00;;;1.52;;
22191;SDS011;11261;52.456;10.850;2024-03-17T11:31:39;4.28;;;1.20;;
22191;SDS011;11261;52.456;10.850;2024-03-17T11:36:56;5.10;;;1.17;;
22191;SDS011;11261;52.456;10.850;2024-03-17T11:42:10;10.93;;;1.48;;
22191;SDS011;11261;52.456;10.850;2024-03-17T11:44:41;2.58;;;0.90;;
22191;SDS011;11261;52.456;10.850;2024-03-17T11:47:11;5.03;;;1.10;;
22191;SDS011;11261;52.456;10.850;2024-03-17T11:49:38;5.25;;;1.20;;
22191;SDS011;11261;52.456;10.850;2024-03-17T11:52:08;4.53;;;1.20;;
22191;SDS011;11261;52.456;10.850;2024-03-17T11:54:36;3.40;;;1.50;;
22191;SDS011;11261;52.456;10.850;2024-03-17T11:57:05;5.97;;;1.40;;
22191;SDS011;11261;52.456;10.850;2024-03-17T11:59:32;4.75;;;1.35;;
22191;SDS011;11261;52.456;10.850;2024-03-17T12:02:00;5.90;;;1.52;;
22191;SDS011;11261;52.456;10.850;2024-03-17T12:04:29;5.05;;;1.27;;
22191;SDS011;11261;52.456;10.850;2024-03-17T12:06:56;4.88;;;1.30;;
22191;SDS011;11261;52.456;10.850;2024-03-17T12:09:24;5.82;;;1.20;;
22191;SDS011;11261;52.456;10.850;2024-03-17T12:11:57;5.22;;;1.50;;
22191;SDS011;11261;52.456;10.850;2024-03-17T12:14:24;5.95;;;1.63;;
22191;SDS011;11261;52.456;10.850;2024-03-17T12:16:52;7.10;;;1.25;;
22191;SDS011;11261;52.456;10.850;2024-03-17T12:19:19;5.32;;;1.20;;
22191;SDS011;11261;52.456;10.850;2024-03-17T12:21:49;6.82;;;1.48;;
22191;SDS011;11261;52.456;10.850;2024-03-17T12:24:16;7.40;;;1.23;;
22191;SDS011;11261;52.456;10.850;2024-03-17T12:26:45;6.80;;;1.52;;
22191;SDS011;11261;52.456;10.850;2024-03-17T12:29:22;5.25;;;1.20;;
22191;SDS011;11261;52.456;10.850;2024-03-17T12:31:50;5.03;;;1.30;;
22191;SDS011;11261;52.456;10.850;2024-03-17T12:34:17;7.28;;;1.55;;
22191;SDS011;11261;52.456;10.850;2024-03-17T12:36:45;4.68;;;1.30;;
22191;SDS011;11261;52.456;10.850;2024-03-17T12:39:19;6.95;;;1.63;;
22191;SDS011;11261;52.456;10.850;2024-03-17T12:42:00;6.15;;;1.20;;
22191;SDS011;11261;52.456;10.850;2024-03-17T12:44:28;5.90;;;1.30;;
22191;SDS011;11261;52.456;10.850;2024-03-17T12:46:55;4.80;;;1.00;;
22191;SDS011;11261;52.456;10.850;2024-03-17T12:49:22;7.78;;;1.20;;
22191;SDS011;11261;52.456;10.850;2024-03-17T12:51:51;4.70;;;1.20;;
22191;SDS011;11261;52.456;10.850;2024-03-17T12:54:21;5.70;;;1.52;;
22191;SDS011;11261;52.456;10.850;2024-03-17T12:56:50;4.88;;;1.15;;
22191;SDS011;11261;52.456;10.850;2024-03-17T12:59:39;5.43;;;1.40;;
22191;SDS011;11261;52.456;10.850;2024-03-17T13:02:24;4.00;;;1.00;;
22191;SDS011;11261;52.456;10.850;2024-03-17T13:05:15;5.10;;;1.20;;
22191;SDS011;11261;52.456;10.850;2024-03-17T13:07:43;6.63;;;1.45;;
22191;SDS011;11261;52.456;10.850;2024-03-17T13:10:14;7.80;;;1.45;;
22191;SDS011;11261;52.456;10.850;2024-03-17T13:12:42;3.50;;;1.35;;
22191;SDS011;11261;52.456;10.850;2024-03-17T13:15:11;7.60;;;1.35;;
22191;SDS011;11261;52.456;10.850;2024-03-17T13:17:39;5.40;;;1.40;;
22191;SDS011;11261;52.456;10.850;2024-03-17T13:20:07;3.03;;;0.90;;
22191;SDS011;11261;52.456;10.850;2024-03-17T13:22:37;4.20;;;1.15;;
22191;SDS011;11261;52.456;10.850;2024-03-17T13:25:07;3.65;;;1.48;;
22191;SDS011;11261;52.456;10.850;2024-03-17T13:27:38;3.60;;;1.30;;
22191;SDS011;11261;52.456;10.850;2024-03-17T13:30:07;6.03;;;1.23;;
22191;SDS011;11261;52.456;10.850;2024-03-17T13:32:35;5.85;;;1.00;;
22191;SDS011;11261;52.456;10.850;2024-03-17T13:35:03;3.33;;;1.02;;
22191;SDS011;11261;52.456;10.850;2024-03-17T13:37:33;4.97;;;1.05;;
22191;SDS011;11261;52.456;10.850;2024-03-17T13:40:03;5.00;;;1.30;;
22191;SDS011;11261;52.456;10.850;2024-03-17T13:42:31;5.53;;;1.40;;
22191;SDS011;11261;52.456;10.850;2024-03-17T13:45:00;3.63;;;1.20;;
22191;SDS011;11261;52.456;10.850;2024-03-17T13:47:28;3.28;;;0.80;;
22191;SDS011;11261;52.456;10.850;2024-03-17T13:49:55;3.67;;;0.93;;
22191;SDS011;11261;52.456;10.850;2024-03-17T13:52:23;5.10;;;1.20;;
22191;SDS011;11261;52.456;10.850;2024-03-17T13:54:51;6.75;;;1.25;;
22191;SDS011;11261;52.456;10.850;2024-03-17T13:57:18;5.55;;;1.08;;
22191;SDS011;11261;52.456;10.850;2024-03-17T13:59:46;4.32;;;1.15;;
22191;SDS011;11261;52.456;10.850;2024-03-17T14:02:17;5.05;;;1.05;;
22191;SDS011;11261;52.456;10.850;2024-03-17T14:04:45;5.53;;;0.98;;
22191;SDS011;11261;52.456;10.850;2024-03-17T14:07:12;2.70;;;0.88;;
22191;SDS011;11261;52.456;10.850;2024-03-17T14:09:40;4.05;;;0.98;;
22191;SDS011;11261;52.456;10.850;2024-03-17T14:12:08;4.13;;;1.15;;
22191;SDS011;11261;52.456;10.850;2024-03-17T14:14:35;4.78;;;0.90;;
22191;SDS011;11261;52.456;10.850;2024-03-17T14:17:03;4.38;;;0.90;;
22191;SDS011;11261;52.456;10.850;2024-03-17T14:19:33;3.92;;;1.45;;
22191;SDS011;11261;52.456;10.850;2024-03-17T14:22:01;5.10;;;1.00;;
22191;SDS011;11261;52.456;10.850;2024-03-17T14:24:28;4.78;;;0.98;;
22191;SDS011;11261;52.456;10.850;2024-03-17T14:26:56;5.50;;;1.10;;
22191;SDS011;11261;52.456;10.850;2024-03-17T14:29:23;4.47;;;1.10;;
22191;SDS011;11261;52.456;10.850;2024-03-17T14:31:51;4.60;;;1.10;;
22191;SDS011;11261;52.456;10.850;2024-03-17T14:34:18;6.40;;;1.17;;
22191;SDS011;11261;52.456;10.850;2024-03-17T14:36:47;4.53;;;1.08;;
22191;SDS011;11261;52.456;10.850;2024-03-17T14:39:14;4.78;;;1.58;;
22191;SDS011;11261;52.456;10.850;2024-03-17T14:41:42;3.72;;;0.98;;
22191;SDS011;11261;52.456;10.850;2024-03-17T14:44:09;5.50;;;1.35;;
22191;SDS011;11261;52.456;10.850;2024-03-17T14:46:37;7.72;;;1.27;;
22191;SDS011;11261;52.456;10.850;2024-03-17T14:49:05;3.75;;;1.00;;
22191;SDS011;11261;52.456;10.850;2024-03-17T14:51:32;3.88;;;0.98;;